Time,TemperatureF,DewpointF,PressureIn,WindDirection,WindDirectionDegrees,WindSpeedMPH,WindSpeedGustMPH,Humidity,HourlyPrecipIn,Conditions,Clouds,dailyrainin,SoftwareType,DateUTC
2013-05-26 00:13:00,66.2,57.0,30.20,West,277,1.0,2.0,71,0.00,,,0.00,weatherlink.com 1.10,2013-05-26 04:13:00,
2013-05-26 00:28:00,66.0,57.0,30.20,SSW,212,0.0,1.0,72,0.00,,,0.00,weatherlink.com 1.10,2013-05-26 04:28:00,
2013-05-26 00:43:00,66.4,57.0,30.20,SW,226,0.0,2.0,71,0.00,,,0.00,weatherlink.com 1.10,2013-05-26 04:43:00,
2013-05-26 00:58:00,66.8,57.0,30.19,WSW,252,0.0,3.0,72,0.00,,,0.00,weatherlink.com 1.10,2013-05-26 04:58:00,
2013-05-26 01:13:00,67.2,58.0,30.19,WSW,242,0.0,5.0,72,0.00,,,0.00,weatherlink.com 1.10,2013-05-26 05:13:00,
2013-05-26 01:28:00,67.2,57.0,30.18,SW,227,1.0,4.0,71,0.00,,,0.00,weatherlink.com 1.10,2013-05-26 05:28:00,
2013-05-26 01:43:00,67.3,58.0,30.17,SW,224,1.0,6.0,72,0.00,,,0.00,weatherlink.com 1.10,2013-05-26 05:43:00,
2013-05-26 01:58:00,66.9,58.0,30.16,North,360,0.0,2.0,74,0.00,,,0.00,weatherlink.com 1.10,2013-05-26 05:58:00,
2013-05-26 02:14:00,66.8,58.0,30.16,West,262,0.0,4.0,74,0.00,,,0.00,weatherlink.com 1.10,2013-05-26 06:14:00,
2013-05-26 08:00:00,68.5,61.0,30.23,West,277,2.0,5.0,77,0.00,,,0.00,weatherlink.com 1.10,2013-05-26 12:00:00,
2013-05-26 08:15:00,69.0,61.0,30.23,WNW,293,3.0,5.0,75,0.00,,,0.00,weatherlink.com 1.10,2013-05-26 12:15:00,
2013-05-26 08:31:00,70.2,62.0,30.24,WNW,284,1.0,4.0,74,0.00,,,0.00,weatherlink.com 1.10,2013-05-26 12:31:00,
2013-05-26 08:46:00,70.1,61.0,30.24,SW,225,2.0,5.0,74,0.00,,,0.00,weatherlink.com 1.10,2013-05-26 12:46:00,
2013-05-26 09:01:00,70.8,61.0,30.25,WNW,286,2.0,6.0,72,0.00,,,0.00,weatherlink.com 1.10,2013-05-26 13:01:00,
2013-05-26 09:15:00,71.4,61.0,30.25,NW,310,2.0,5.0,70,0.00,,,0.00,weatherlink.com 1.10,2013-05-26 13:15:00,
2013-05-26 09:30:00,72.7,62.0,30.25,NW,314,2.0,6.0,70,0.00,,,0.00,weatherlink.com 1.10,2013-05-26 13:30:00,
2013-05-26 09:45:00,73.1,62.0,30.26,SSW,212,1.0,6.0,68,0.00,,,0.00,weatherlink.com 1.10,2013-05-26 13:45:00,
2013-05-26 10:00:00,74.0,61.0,30.26,WNW,288,5.0,6.0,64,0.00,,,0.00,weatherlink.com 1.10,2013-05-26 14:00:00,
2013-05-26 10:16:00,73.8,61.0,30.26,WNW,293,2.0,6.0,64,0.00,,,0.00,weatherlink.com 1.10,2013-05-26 14:16:00,
2013-05-26 10:30:00,73.7,61.0,30.26,SSW,210,1.0,6.0,64,0.00,,,0.00,weatherlink.com 1.10,2013-05-26 14:30:00,
2013-05-26 10:45:00,75.2,61.0,30.25,West,266,1.0,5.0,61,0.00,,,0.00,weatherlink.com 1.10,2013-05-26 14:45:00,
2013-05-26 11:01:00,75.9,60.0,30.25,West,267,3.0,8.0,59,0.00,,,0.00,weatherlink.com 1.10,2013-05-26 15:01:00,
2013-05-26 11:16:00,76.5,61.0,30.24,NNW,334,3.0,7.0,58,0.00,,,0.00,weatherlink.com 1.10,2013-05-26 15:16:00,
2013-05-26 11:31:00,76.8,60.0,30.24,WSW,257,1.0,6.0,57,0.00,,,0.00,weatherlink.com 1.10,2013-05-26 15:31:00,
2013-05-26 11:46:00,77.2,61.0,30.24,West,263,2.0,6.0,58,0.00,,,0.00,weatherlink.com 1.10,2013-05-26 15:46:00,
2013-05-26 14:02:00,84.2,60.0,30.22,South,188,1.0,4.0,44,0.00,,,0.00,weatherlink.com 1.10,2013-05-26 18:02:00,
2013-05-26 14:17:00,85.2,63.0,30.21,South,172,1.0,3.0,47,0.00,,,0.00,weatherlink.com 1.10,2013-05-26 18:17:00,
2013-05-26 14:32:00,84.9,61.0,30.20,South,179,2.0,6.0,45,0.00,,,0.00,weatherlink.com 1.10,2013-05-26 18:32:00,
2013-05-26 14:47:00,83.4,62.0,30.20,SE,135,4.0,7.0,48,0.00,,,0.00,weatherlink.com 1.10,2013-05-26 18:47:00,
2013-05-26 15:02:00,82.1,64.0,30.19,South,183,5.0,8.0,54,0.00,,,0.00,weatherlink.com 1.10,2013-05-26 19:02:00,
2013-05-26 15:17:00,80.6,62.0,30.19,South,188,3.0,12.0,54,0.00,,,0.00,weatherlink.com 1.10,2013-05-26 19:17:00,
2013-05-26 15:32:00,81.6,66.0,30.18,South,181,4.0,11.0,60,0.00,,,0.00,weatherlink.com 1.10,2013-05-26 19:32:00,
2013-05-26 15:47:00,80.4,63.0,30.18,SE,144,7.0,11.0,56,0.00,,,0.00,weatherlink.com 1.10,2013-05-26 19:47:00,
2013-05-26 16:02:00,79.9,65.0,30.18,South,176,4.0,11.0,60,0.00,,,0.00,weatherlink.com 1.10,2013-05-26 20:02:00,
2013-05-26 16:17:00,79.3,64.0,30.18,South,172,6.0,12.0,60,0.00,,,0.00,weatherlink.com 1.10,2013-05-26 20:17:00,
2013-05-26 16:32:00,79.6,62.0,30.17,South,179,8.0,11.0,55,0.00,,,0.00,weatherlink.com 1.10,2013-05-26 20:32:00,
2013-05-26 16:47:00,80.3,62.0,30.17,SSE,160,3.0,7.0,53,0.00,,,0.00,weatherlink.com 1.10,2013-05-26 20:47:00,
2013-05-26 17:02:00,80.1,60.0,30.16,SSW,207,2.0,10.0,50,0.00,,,0.00,weatherlink.com 1.10,2013-05-26 21:02:00,
2013-05-26 17:17:00,79.9,60.0,30.16,SSW,199,3.0,10.0,51,0.00,,,0.00,weatherlink.com 1.10,2013-05-26 21:17:00,
2013-05-26 17:32:00,79.8,58.0,30.16,South,188,7.0,7.0,47,0.00,,,0.00,weatherlink.com 1.10,2013-05-26 21:32:00,
2013-05-26 17:47:00,79.3,59.0,30.16,South,181,3.0,9.0,50,0.00,,,0.00,weatherlink.com 1.10,2013-05-26 21:47:00,
2013-05-26 20:02:00,74.3,60.0,30.16,SSW,210,1.0,6.0,62,0.00,,,0.00,weatherlink.com 1.10,2013-05-27 00:02:00,
2013-05-26 20:17:00,73.3,61.0,30.16,SW,228,2.0,2.0,66,0.00,,,0.00,weatherlink.com 1.10,2013-05-27 00:17:00,
2013-05-26 20:32:00,72.7,61.0,30.16,SSW,207,0.0,3.0,67,0.00,,,0.00,weatherlink.com 1.10,2013-05-27 00:32:00,
2013-05-26 20:47:00,72.4,61.0,30.16,SW,221,0.0,2.0,68,0.00,,,0.00,weatherlink.com 1.10,2013-05-27 00:47:00,
2013-05-26 21:02:00,72.2,61.0,30.16,South,188,1.0,2.0,69,0.00,,,0.00,weatherlink.com 1.10,2013-05-27 01:02:00,
2013-05-26 21:17:00,71.8,62.0,30.16,SW,214,2.0,2.0,70,0.00,,,0.00,weatherlink.com 1.10,2013-05-27 01:17:00,
2013-05-26 21:32:00,71.7,62.0,30.16,SW,218,0.0,1.0,71,0.00,,,0.00,weatherlink.com 1.10,2013-05-27 01:32:00,
2013-05-26 21:47:00,71.7,62.0,30.16,SW,221,1.0,2.0,71,0.00,,,0.00,weatherlink.com 1.10,2013-05-27 01:47:00,
2013-05-26 22:02:00,71.8,62.0,30.17,SW,225,0.0,2.0,71,0.00,,,0.00,weatherlink.com 1.10,2013-05-27 02:02:00,
2013-05-26 22:17:00,71.7,61.0,30.18,SW,224,0.0,2.0,70,0.00,,,0.00,weatherlink.com 1.10,2013-05-27 02:17:00,
2013-05-26 22:32:00,71.8,62.0,30.18,SW,214,0.0,2.0,70,0.00,,,0.00,weatherlink.com 1.10,2013-05-27 02:32:00,
2013-05-26 22:47:00,71.8,62.0,30.18,SSE,153,0.0,2.0,70,0.00,,,0.00,weatherlink.com 1.10,2013-05-27 02:47:00,
2013-05-26 23:02:00,71.8,62.0,30.18,SW,224,0.0,1.0,70,0.00,,,0.00,weatherlink.com 1.10,2013-05-27 03:02:00,
2013-05-26 23:17:00,71.9,62.0,30.18,SW,221,1.0,2.0,70,0.00,,,0.00,weatherlink.com 1.10,2013-05-27 03:17:00,
2013-05-26 23:32:00,72.0,61.0,30.18,SW,214,0.0,2.0,69,0.00,,,0.00,weatherlink.com 1.10,2013-05-27 03:32:00,
2013-05-26 23:47:00,71.8,62.0,30.19,SW,225,0.0,1.0,71,0.00,,,0.00,weatherlink.com 1.10,2013-05-27 03:47:00,